Summerland Key, FL (33042)

5:07 AM EDT on August 29, 2015 (GMT -0400)
Cudjoe Key | | Change Station
CLOSE
Current Station
Personal Weather Station
Location: Cudjoe Key, FL
Elevation: 16 ft
Nearby Weather Stations

Elev 16 ft 24.66 °N, 81.48 °W | Updated 27 minutes ago

Partly Cloudy
Partly Cloudy
82.3 °F
Feels Like 93 °F
N
4.0
Wind Variable Wind from East
Gusts 12.0 mph

Today
High -- | Low -- °F
--% Chance of Precip.
Yesterday
High -- | Low -- °F
Precip. -- in
7:05 AM 7:47 PM
Full, 100% visible
Pressure 29.96 in
Visibility 10.0 miles
Clouds Few 1900 ft
Heat Index 93 °F
Dew Point 79 °F
Humidity 91%
Rainfall 0.00 in
Snow Depth Not available.
UV 0 out of 12
Pollen 5.10 out of 12
Air Quality Not available.
Flu Activity Not available.
METAR KNQX 290853Z AUTO 10010KT 10SM FEW019 28/26 A2996 RMK AO2 SLP145 6//// T02830256 56012 PNO $
Pressure 29.96 in
Visibility 10.0 miles
Clouds Few 1900 ft
Heat Index 93 °F
Dew Point 79 °F
Humidity 91%
Rainfall 0.00 in
Snow Depth Not available.
UV 0 out of 12
Pollen 5.10 out of 12
Air Quality Not available.
Flu Activity Not available.
METAR KNQX 290853Z AUTO 10010KT 10SM FEW019 28/26 A2996 RMK AO2 SLP145 6//// T02830256 56012 PNO $
Erika has become very unorganized in the face of strong wind shear in the eastern Caribbean Sea. The storm will pass directly over mountainous Hispaniola today, likely weakening it further. If the storm remains intact, it could reach an area favorable for strengthening before moving onto Florida by early next week. Follow the live blog

10-Day Weather Forecast

×

Almanac

Astronomy

Aug. 29, 2015 Rise Set
Actual Time
Civil Twilight
Nautical Twilight
Astronomical Twilight
Moon
Length of Visible Light
Length of Day
Tomorrow will be .
, % of the Moon is Illuminated

Today's Extremes

State Highs State Lows

Community

WunderPhotos

Upload Photos

1,850,634 photos uploaded!

WunderBlogs® & News

Nearby

Air Quality

  Air Quality AQ Index Pollutant
Not available.

Snow Depth

Station Depth Elevation

Earthquake Activity

City Distance Mag. Time & Date
Minimum magnitude displayed is 2.5.

Coastal Water Temperatures

Place Temperature

Stations

Nearby Weather Stations

Station Location Temp. Windchill Dew Point Humidity Wind Precip. Elev Updated Type